sensor_id;sensor_type;location;lat;lon;timestamp;P1;durP1;ratioP1;P2;durP2;ratioP2
4810;SDS011;2419;51.276;6.472;2023-12-20T00:02:19;19.20;;;6.83;;
4810;SDS011;2419;51.276;6.472;2023-12-20T00:04:47;13.77;;;6.30;;
4810;SDS011;2419;51.276;6.472;2023-12-20T00:07:16;16.20;;;6.97;;
4810;SDS011;2419;51.276;6.472;2023-12-20T00:09:44;14.27;;;7.43;;
4810;SDS011;2419;51.276;6.472;2023-12-20T00:12:12;15.20;;;7.90;;
4810;SDS011;2419;51.276;6.472;2023-12-20T00:14:41;15.80;;;8.97;;
4810;SDS011;2419;51.276;6.472;2023-12-20T00:17:09;13.30;;;7.20;;
4810;SDS011;2419;51.276;6.472;2023-12-20T00:19:37;14.60;;;7.20;;
4810;SDS011;2419;51.276;6.472;2023-12-20T00:22:06;14.83;;;7.80;;
4810;SDS011;2419;51.276;6.472;2023-12-20T00:24:34;18.00;;;7.90;;
4810;SDS011;2419;51.276;6.472;2023-12-20T00:27:02;18.30;;;7.63;;
4810;SDS011;2419;51.276;6.472;2023-12-20T00:29:30;17.67;;;7.80;;
4810;SDS011;2419;51.276;6.472;2023-12-20T00:31:59;18.63;;;7.70;;
4810;SDS011;2419;51.276;6.472;2023-12-20T00:34:28;15.53;;;7.17;;
4810;SDS011;2419;51.276;6.472;2023-12-20T00:36:56;13.93;;;6.80;;
4810;SDS011;2419;51.276;6.472;2023-12-20T00:39:24;12.30;;;7.13;;
4810;SDS011;2419;51.276;6.472;2023-12-20T00:41:52;20.67;;;8.27;;
4810;SDS011;2419;51.276;6.472;2023-12-20T00:44:20;17.27;;;9.13;;
4810;SDS011;2419;51.276;6.472;2023-12-20T00:46:48;22.00;;;9.30;;
4810;SDS011;2419;51.276;6.472;2023-12-20T00:49:18;21.30;;;11.50;;
4810;SDS011;2419;51.276;6.472;2023-12-20T00:51:47;24.97;;;11.73;;
4810;SDS011;2419;51.276;6.472;2023-12-20T00:54:17;27.37;;;12.10;;
4810;SDS011;2419;51.276;6.472;2023-12-20T00:56:45;25.13;;;12.17;;
4810;SDS011;2419;51.276;6.472;2023-12-20T00:59:13;30.80;;;12.07;;
4810;SDS011;2419;51.276;6.472;2023-12-20T01:01:41;26.77;;;12.27;;
4810;SDS011;2419;51.276;6.472;2023-12-20T01:04:09;22.40;;;11.73;;
4810;SDS011;2419;51.276;6.472;2023-12-20T01:06:39;27.37;;;13.60;;
4810;SDS011;2419;51.276;6.472;2023-12-20T01:09:07;23.60;;;13.20;;
4810;SDS011;2419;51.276;6.472;2023-12-20T01:11:35;28.53;;;13.53;;
4810;SDS011;2419;51.276;6.472;2023-12-20T01:14:03;31.60;;;12.70;;
4810;SDS011;2419;51.276;6.472;2023-12-20T01:16:31;27.53;;;12.93;;
4810;SDS011;2419;51.276;6.472;2023-12-20T01:18:59;25.33;;;12.90;;
4810;SDS011;2419;51.276;6.472;2023-12-20T01:21:27;21.07;;;12.93;;
4810;SDS011;2419;51.276;6.472;2023-12-20T01:23:57;26.77;;;12.33;;
4810;SDS011;2419;51.276;6.472;2023-12-20T01:26:25;32.43;;;10.93;;
4810;SDS011;2419;51.276;6.472;2023-12-20T01:28:53;22.77;;;10.40;;
4810;SDS011;2419;51.276;6.472;2023-12-20T01:31:21;26.23;;;10.33;;
4810;SDS011;2419;51.276;6.472;2023-12-20T01:33:49;23.10;;;10.30;;
4810;SDS011;2419;51.276;6.472;2023-12-20T01:36:17;27.53;;;10.40;;
4810;SDS011;2419;51.276;6.472;2023-12-20T01:38:46;24.10;;;10.03;;
4810;SDS011;2419;51.276;6.472;2023-12-20T01:41:15;20.50;;;9.80;;
4810;SDS011;2419;51.276;6.472;2023-12-20T01:43:43;18.03;;;8.50;;
4810;SDS011;2419;51.276;6.472;2023-12-20T01:46:17;23.67;;;7.20;;
4810;SDS011;2419;51.276;6.472;2023-12-20T01:48:47;16.60;;;7.80;;
4810;SDS011;2419;51.276;6.472;2023-12-20T01:51:16;15.93;;;7.20;;
4810;SDS011;2419;51.276;6.472;2023-12-20T01:53:44;29.67;;;7.33;;
4810;SDS011;2419;51.276;6.472;2023-12-20T01:56:15;27.10;;;7.37;;
4810;SDS011;2419;51.276;6.472;2023-12-20T01:58:44;22.93;;;7.70;;
4810;SDS011;2419;51.276;6.472;2023-12-20T02:01:13;13.83;;;5.93;;
4810;SDS011;2419;51.276;6.472;2023-12-20T02:03:42;14.13;;;5.60;;
4810;SDS011;2419;51.276;6.472;2023-12-20T02:06:10;16.20;;;6.03;;
4810;SDS011;2419;51.276;6.472;2023-12-20T02:08:39;18.63;;;5.13;;
4810;SDS011;2419;51.276;6.472;2023-12-20T02:11:07;15.30;;;5.80;;
4810;SDS011;2419;51.276;6.472;2023-12-20T02:13:37;13.30;;;4.73;;
4810;SDS011;2419;51.276;6.472;2023-12-20T02:16:05;8.13;;;4.50;;
4810;SDS011;2419;51.276;6.472;2023-12-20T02:18:34;19.57;;;5.10;;
4810;SDS011;2419;51.276;6.472;2023-12-20T02:21:03;11.10;;;3.67;;
4810;SDS011;2419;51.276;6.472;2023-12-20T02:23:33;9.97;;;4.00;;
4810;SDS011;2419;51.276;6.472;2023-12-20T02:26:01;10.97;;;3.87;;
4810;SDS011;2419;51.276;6.472;2023-12-20T02:28:30;10.33;;;3.93;;
4810;SDS011;2419;51.276;6.472;2023-12-20T02:30:59;17.73;;;3.07;;
4810;SDS011;2419;51.276;6.472;2023-12-20T02:33:27;13.10;;;3.60;;
4810;SDS011;2419;51.276;6.472;2023-12-20T02:35:55;19.00;;;3.43;;
4810;SDS011;2419;51.276;6.472;2023-12-20T02:38:23;9.67;;;2.63;;
4810;SDS011;2419;51.276;6.472;2023-12-20T02:40:53;16.20;;;3.33;;
4810;SDS011;2419;51.276;6.472;2023-12-20T02:43:21;12.80;;;2.60;;
4810;SDS011;2419;51.276;6.472;2023-12-20T02:45:49;8.97;;;3.00;;
4810;SDS011;2419;51.276;6.472;2023-12-20T02:48:17;13.90;;;2.90;;
4810;SDS011;2419;51.276;6.472;2023-12-20T02:50:45;19.73;;;2.90;;
4810;SDS011;2419;51.276;6.472;2023-12-20T02:53:15;16.47;;;3.50;;
4810;SDS011;2419;51.276;6.472;2023-12-20T02:55:43;13.63;;;3.83;;
4810;SDS011;2419;51.276;6.472;2023-12-20T02:58:12;21.23;;;3.10;;
4810;SDS011;2419;51.276;6.472;2023-12-20T03:00:40;11.93;;;3.00;;
4810;SDS011;2419;51.276;6.472;2023-12-20T03:03:08;13.73;;;3.93;;
4810;SDS011;2419;51.276;6.472;2023-12-20T03:05:37;10.03;;;3.00;;
4810;SDS011;2419;51.276;6.472;2023-12-20T03:08:05;14.70;;;2.33;;
4810;SDS011;2419;51.276;6.472;2023-12-20T03:10:33;13.80;;;2.50;;
4810;SDS011;2419;51.276;6.472;2023-12-20T03:13:01;15.83;;;3.30;;
4810;SDS011;2419;51.276;6.472;2023-12-20T03:15:30;13.23;;;2.63;;
4810;SDS011;2419;51.276;6.472;2023-12-20T03:17:58;13.60;;;3.03;;
4810;SDS011;2419;51.276;6.472;2023-12-20T03:20:27;8.87;;;2.43;;
4810;SDS011;2419;51.276;6.472;2023-12-20T03:22:55;8.33;;;2.93;;
4810;SDS011;2419;51.276;6.472;2023-12-20T03:25:23;8.83;;;2.67;;
4810;SDS011;2419;51.276;6.472;2023-12-20T03:27:51;20.93;;;2.80;;
4810;SDS011;2419;51.276;6.472;2023-12-20T03:30:20;14.17;;;2.70;;
4810;SDS011;2419;51.276;6.472;2023-12-20T03:32:49;5.40;;;2.50;;
4810;SDS011;2419;51.276;6.472;2023-12-20T03:35:17;7.30;;;2.43;;
4810;SDS011;2419;51.276;6.472;2023-12-20T03:37:45;16.30;;;3.23;;
4810;SDS011;2419;51.276;6.472;2023-12-20T03:40:13;17.60;;;3.40;;
4810;SDS011;2419;51.276;6.472;2023-12-20T03:42:42;22.43;;;4.03;;
4810;SDS011;2419;51.276;6.472;2023-12-20T03:45:10;7.63;;;2.80;;
4810;SDS011;2419;51.276;6.472;2023-12-20T03:47:38;11.77;;;2.60;;
4810;SDS011;2419;51.276;6.472;2023-12-20T03:50:08;12.53;;;3.40;;
4810;SDS011;2419;51.276;6.472;2023-12-20T03:52:36;15.43;;;3.67;;
4810;SDS011;2419;51.276;6.472;2023-12-20T03:55:04;9.30;;;2.90;;
4810;SDS011;2419;51.276;6.472;2023-12-20T03:57:33;23.23;;;3.43;;
4810;SDS011;2419;51.276;6.472;2023-12-20T04:00:01;11.57;;;4.13;;
4810;SDS011;2419;51.276;6.472;2023-12-20T04:02:37;7.40;;;2.93;;
4810;SDS011;2419;51.276;6.472;2023-12-20T04:05:08;22.30;;;3.63;;
4810;SDS011;2419;51.276;6.472;2023-12-20T04:07:36;12.27;;;4.17;;
4810;SDS011;2419;51.276;6.472;2023-12-20T04:10:05;14.40;;;4.30;;
4810;SDS011;2419;51.276;6.472;2023-12-20T04:12:34;26.00;;;4.47;;
4810;SDS011;2419;51.276;6.472;2023-12-20T04:15:03;11.10;;;3.90;;
4810;SDS011;2419;51.276;6.472;2023-12-20T04:17:35;13.77;;;4.97;;
4810;SDS011;2419;51.276;6.472;2023-12-20T04:20:04;15.50;;;5.53;;
4810;SDS011;2419;51.276;6.472;2023-12-20T04:22:35;21.73;;;5.70;;
4810;SDS011;2419;51.276;6.472;2023-12-20T04:25:03;19.17;;;6.60;;
4810;SDS011;2419;51.276;6.472;2023-12-20T04:27:31;14.47;;;4.77;;
4810;SDS011;2419;51.276;6.472;2023-12-20T04:29:59;21.50;;;6.23;;
4810;SDS011;2419;51.276;6.472;2023-12-20T04:32:27;17.77;;;6.10;;
4810;SDS011;2419;51.276;6.472;2023-12-20T04:34:55;18.67;;;5.97;;
4810;SDS011;2419;51.276;6.472;2023-12-20T04:37:24;15.80;;;6.30;;
4810;SDS011;2419;51.276;6.472;2023-12-20T04:39:53;17.47;;;5.50;;
4810;SDS011;2419;51.276;6.472;2023-12-20T04:42:21;12.10;;;6.57;;
4810;SDS011;2419;51.276;6.472;2023-12-20T04:44:49;20.20;;;6.10;;
4810;SDS011;2419;51.276;6.472;2023-12-20T04:47:17;25.83;;;6.17;;
4810;SDS011;2419;51.276;6.472;2023-12-20T04:49:45;9.73;;;4.90;;
4810;SDS011;2419;51.276;6.472;2023-12-20T04:52:13;11.30;;;5.30;;
4810;SDS011;2419;51.276;6.472;2023-12-20T04:54:42;31.70;;;6.93;;
4810;SDS011;2419;51.276;6.472;2023-12-20T04:57:12;12.97;;;5.73;;
4810;SDS011;2419;51.276;6.472;2023-12-20T04:59:40;18.60;;;5.97;;
4810;SDS011;2419;51.276;6.472;2023-12-20T05:02:08;12.93;;;5.67;;
4810;SDS011;2419;51.276;6.472;2023-12-20T05:04:36;20.03;;;5.07;;
4810;SDS011;2419;51.276;6.472;2023-12-20T05:07:04;20.03;;;6.33;;
4810;SDS011;2419;51.276;6.472;2023-12-20T05:09:33;13.77;;;6.17;;
4810;SDS011;2419;51.276;6.472;2023-12-20T05:12:01;25.77;;;5.17;;
4810;SDS011;2419;51.276;6.472;2023-12-20T05:14:30;9.60;;;5.50;;
4810;SDS011;2419;51.276;6.472;2023-12-20T05:16:58;12.37;;;5.27;;
4810;SDS011;2419;51.276;6.472;2023-12-20T05:19:27;15.10;;;5.07;;
4810;SDS011;2419;51.276;6.472;2023-12-20T05:21:55;20.97;;;6.00;;
4810;SDS011;2419;51.276;6.472;2023-12-20T05:24:24;17.43;;;5.93;;
4810;SDS011;2419;51.276;6.472;2023-12-20T05:26:52;8.63;;;5.23;;
4810;SDS011;2419;51.276;6.472;2023-12-20T05:29:20;18.70;;;6.40;;
4810;SDS011;2419;51.276;6.472;2023-12-20T05:31:49;22.07;;;6.23;;
4810;SDS011;2419;51.276;6.472;2023-12-20T05:34:17;13.90;;;5.17;;
4810;SDS011;2419;51.276;6.472;2023-12-20T05:36:45;20.07;;;5.77;;
4810;SDS011;2419;51.276;6.472;2023-12-20T05:39:13;14.40;;;5.73;;
4810;SDS011;2419;51.276;6.472;2023-12-20T05:41:41;21.03;;;5.93;;
4810;SDS011;2419;51.276;6.472;2023-12-20T05:44:09;9.90;;;4.70;;
4810;SDS011;2419;51.276;6.472;2023-12-20T05:46:37;13.80;;;5.40;;
4810;SDS011;2419;51.276;6.472;2023-12-20T05:49:07;13.40;;;5.57;;
4810;SDS011;2419;51.276;6.472;2023-12-20T05:51:35;28.70;;;5.73;;
4810;SDS011;2419;51.276;6.472;2023-12-20T05:54:04;14.87;;;5.50;;
4810;SDS011;2419;51.276;6.472;2023-12-20T05:56:32;13.73;;;4.53;;
4810;SDS011;2419;51.276;6.472;2023-12-20T05:59:00;18.17;;;4.50;;
4810;SDS011;2419;51.276;6.472;2023-12-20T06:01:28;14.40;;;5.63;;
4810;SDS011;2419;51.276;6.472;2023-12-20T06:03:56;16.90;;;5.30;;
4810;SDS011;2419;51.276;6.472;2023-12-20T06:06:25;8.63;;;4.70;;
4810;SDS011;2419;51.276;6.472;2023-12-20T06:08:53;18.93;;;6.03;;
4810;SDS011;2419;51.276;6.472;2023-12-20T06:11:21;13.20;;;4.90;;
4810;SDS011;2419;51.276;6.472;2023-12-20T06:13:50;23.73;;;4.73;;
4810;SDS011;2419;51.276;6.472;2023-12-20T06:16:19;13.73;;;4.43;;
4810;SDS011;2419;51.276;6.472;2023-12-20T06:18:48;16.43;;;4.20;;
4810;SDS011;2419;51.276;6.472;2023-12-20T06:21:16;9.53;;;4.20;;
4810;SDS011;2419;51.276;6.472;2023-12-20T06:23:45;16.87;;;4.10;;
4810;SDS011;2419;51.276;6.472;2023-12-20T06:26:13;12.00;;;4.70;;
4810;SDS011;2419;51.276;6.472;2023-12-20T06:28:41;13.83;;;4.90;;
4810;SDS011;2419;51.276;6.472;2023-12-20T06:31:09;8.60;;;3.80;;
4810;SDS011;2419;51.276;6.472;2023-12-20T06:33:37;21.93;;;4.10;;
4810;SDS011;2419;51.276;6.472;2023-12-20T06:36:07;21.37;;;5.20;;
4810;SDS011;2419;51.276;6.472;2023-12-20T06:38:38;9.53;;;3.30;;
4810;SDS011;2419;51.276;6.472;2023-12-20T06:41:07;22.33;;;5.47;;
4810;SDS011;2419;51.276;6.472;2023-12-20T06:43:35;19.63;;;5.00;;
4810;SDS011;2419;51.276;6.472;2023-12-20T06:46:15;12.60;;;3.87;;
4810;SDS011;2419;51.276;6.472;2023-12-20T06:48:44;17.90;;;4.50;;
4810;SDS011;2419;51.276;6.472;2023-12-20T06:51:14;25.50;;;5.60;;
4810;SDS011;2419;51.276;6.472;2023-12-20T06:53:43;17.50;;;4.87;;
4810;SDS011;2419;51.276;6.472;2023-12-20T06:56:12;21.30;;;4.93;;
4810;SDS011;2419;51.276;6.472;2023-12-20T06:58:44;12.63;;;4.17;;
4810;SDS011;2419;51.276;6.472;2023-12-20T07:01:13;28.37;;;6.93;;
4810;SDS011;2419;51.276;6.472;2023-12-20T07:03:41;13.50;;;5.17;;
4810;SDS011;2419;51.276;6.472;2023-12-20T07:06:10;10.17;;;4.20;;
4810;SDS011;2419;51.276;6.472;2023-12-20T07:08:38;15.40;;;5.40;;
4810;SDS011;2419;51.276;6.472;2023-12-20T07:11:07;14.33;;;3.90;;
4810;SDS011;2419;51.276;6.472;2023-12-20T07:13:36;23.90;;;4.90;;
4810;SDS011;2419;51.276;6.472;2023-12-20T07:16:05;11.03;;;3.90;;
4810;SDS011;2419;51.276;6.472;2023-12-20T07:18:33;15.47;;;3.90;;
4810;SDS011;2419;51.276;6.472;2023-12-20T07:21:01;12.43;;;4.70;;
4810;SDS011;2419;51.276;6.472;2023-12-20T07:23:30;11.73;;;4.40;;
4810;SDS011;2419;51.276;6.472;2023-12-20T07:25:58;22.70;;;5.10;;
4810;SDS011;2419;51.276;6.472;2023-12-20T07:28:26;16.20;;;5.43;;
4810;SDS011;2419;51.276;6.472;2023-12-20T07:30:55;22.37;;;5.13;;
4810;SDS011;2419;51.276;6.472;2023-12-20T07:33:23;30.23;;;6.70;;
4810;SDS011;2419;51.276;6.472;2023-12-20T07:35:51;8.63;;;5.20;;
4810;SDS011;2419;51.276;6.472;2023-12-20T07:38:20;17.83;;;6.00;;
4810;SDS011;2419;51.276;6.472;2023-12-20T07:40:48;24.97;;;6.40;;
4810;SDS011;2419;51.276;6.472;2023-12-20T07:43:16;12.17;;;4.87;;
4810;SDS011;2419;51.276;6.472;2023-12-20T07:45:43;20.13;;;5.00;;
4810;SDS011;2419;51.276;6.472;2023-12-20T07:48:12;28.60;;;5.07;;
4810;SDS011;2419;51.276;6.472;2023-12-20T07:50:40;21.17;;;5.40;;
4810;SDS011;2419;51.276;6.472;2023-12-20T07:53:09;21.47;;;5.23;;
4810;SDS011;2419;51.276;6.472;2023-12-20T07:55:37;14.03;;;4.27;;
4810;SDS011;2419;51.276;6.472;2023-12-20T07:58:06;18.57;;;4.80;;
4810;SDS011;2419;51.276;6.472;2023-12-20T08:00:34;11.77;;;4.80;;
4810;SDS011;2419;51.276;6.472;2023-12-20T08:03:02;15.23;;;4.40;;
4810;SDS011;2419;51.276;6.472;2023-12-20T08:05:32;27.87;;;5.30;;
4810;SDS011;2419;51.276;6.472;2023-12-20T08:08:00;17.90;;;4.90;;
4810;SDS011;2419;51.276;6.472;2023-12-20T08:10:28;19.83;;;3.80;;
4810;SDS011;2419;51.276;6.472;2023-12-20T08:12:57;18.17;;;5.80;;
4810;SDS011;2419;51.276;6.472;2023-12-20T08:15:25;9.73;;;4.30;;
4810;SDS011;2419;51.276;6.472;2023-12-20T08:17:53;15.13;;;3.73;;
4810;SDS011;2419;51.276;6.472;2023-12-20T08:20:21;13.20;;;4.90;;
4810;SDS011;2419;51.276;6.472;2023-12-20T08:23:04;13.67;;;4.23;;
4810;SDS011;2419;51.276;6.472;2023-12-20T08:25:32;17.20;;;4.70;;
4810;SDS011;2419;51.276;6.472;2023-12-20T08:28:00;19.87;;;4.40;;
4810;SDS011;2419;51.276;6.472;2023-12-20T08:30:29;10.40;;;4.13;;
4810;SDS011;2419;51.276;6.472;2023-12-20T08:32:59;18.03;;;4.27;;
4810;SDS011;2419;51.276;6.472;2023-12-20T08:35:27;13.90;;;4.27;;
4810;SDS011;2419;51.276;6.472;2023-12-20T08:37:55;17.63;;;3.77;;
4810;SDS011;2419;51.276;6.472;2023-12-20T08:40:25;7.73;;;3.70;;
4810;SDS011;2419;51.276;6.472;2023-12-20T08:42:53;16.83;;;4.27;;
4810;SDS011;2419;51.276;6.472;2023-12-20T08:45:21;13.80;;;4.10;;
4810;SDS011;2419;51.276;6.472;2023-12-20T08:47:49;14.47;;;3.77;;
4810;SDS011;2419;51.276;6.472;2023-12-20T08:50:18;16.13;;;4.20;;
4810;SDS011;2419;51.276;6.472;2023-12-20T08:52:47;17.20;;;3.30;;
4810;SDS011;2419;51.276;6.472;2023-12-20T08:55:15;14.70;;;4.55;;
4810;SDS011;2419;51.276;6.472;2023-12-20T08:57:46;22.23;;;3.03;;
4810;SDS011;2419;51.276;6.472;2023-12-20T09:00:14;13.40;;;3.93;;
4810;SDS011;2419;51.276;6.472;2023-12-20T09:02:43;7.60;;;2.97;;
4810;SDS011;2419;51.276;6.472;2023-12-20T09:05:11;18.53;;;3.87;;
4810;SDS011;2419;51.276;6.472;2023-12-20T09:07:39;15.63;;;3.33;;
4810;SDS011;2419;51.276;6.472;2023-12-20T09:10:07;13.83;;;3.70;;
4810;SDS011;2419;51.276;6.472;2023-12-20T09:12:35;11.00;;;3.30;;
4810;SDS011;2419;51.276;6.472;2023-12-20T09:15:08;9.87;;;3.10;;
4810;SDS011;2419;51.276;6.472;2023-12-20T09:17:36;10.60;;;3.30;;
4810;SDS011;2419;51.276;6.472;2023-12-20T09:20:04;17.43;;;3.20;;
4810;SDS011;2419;51.276;6.472;2023-12-20T09:22:35;12.20;;;3.10;;
4810;SDS011;2419;51.276;6.472;2023-12-20T09:25:05;10.67;;;3.40;;
4810;SDS011;2419;51.276;6.472;2023-12-20T09:27:33;22.33;;;4.30;;
4810;SDS011;2419;51.276;6.472;2023-12-20T09:30:02;15.07;;;3.57;;
4810;SDS011;2419;51.276;6.472;2023-12-20T09:32:32;24.50;;;3.23;;
4810;SDS011;2419;51.276;6.472;2023-12-20T09:35:01;14.97;;;2.70;;
4810;SDS011;2419;51.276;6.472;2023-12-20T09:37:29;45.90;;;5.90;;
4810;SDS011;2419;51.276;6.472;2023-12-20T09:39:57;8.20;;;2.20;;
4810;SDS011;2419;51.276;6.472;2023-12-20T09:42:29;10.60;;;2.53;;
4810;SDS011;2419;51.276;6.472;2023-12-20T09:45:06;62.30;;;6.63;;
4810;SDS011;2419;51.276;6.472;2023-12-20T09:47:37;21.97;;;3.83;;
4810;SDS011;2419;51.276;6.472;2023-12-20T09:50:06;21.40;;;3.20;;
4810;SDS011;2419;51.276;6.472;2023-12-20T09:52:35;17.97;;;3.87;;
4810;SDS011;2419;51.276;6.472;2023-12-20T09:55:04;17.03;;;3.37;;
4810;SDS011;2419;51.276;6.472;2023-12-20T09:57:34;7.33;;;2.20;;
4810;SDS011;2419;51.276;6.472;2023-12-20T10:00:02;8.03;;;2.53;;
4810;SDS011;2419;51.276;6.472;2023-12-20T10:02:39;18.97;;;3.27;;
4810;SDS011;2419;51.276;6.472;2023-12-20T10:05:13;13.60;;;3.23;;
4810;SDS011;2419;51.276;6.472;2023-12-20T10:07:45;7.63;;;2.57;;
4810;SDS011;2419;51.276;6.472;2023-12-20T10:10:15;10.40;;;2.70;;
4810;SDS011;2419;51.276;6.472;2023-12-20T10:12:45;14.27;;;3.80;;
4810;SDS011;2419;51.276;6.472;2023-12-20T10:15:30;12.87;;;3.00;;
4810;SDS011;2419;51.276;6.472;2023-12-20T10:18:01;7.00;;;2.87;;
4810;SDS011;2419;51.276;6.472;2023-12-20T10:20:29;10.03;;;2.37;;
4810;SDS011;2419;51.276;6.472;2023-12-20T10:22:58;19.00;;;3.23;;
4810;SDS011;2419;51.276;6.472;2023-12-20T10:25:28;15.17;;;3.07;;
4810;SDS011;2419;51.276;6.472;2023-12-20T10:28:10;10.00;;;2.93;;
4810;SDS011;2419;51.276;6.472;2023-12-20T10:30:40;6.43;;;2.90;;
4810;SDS011;2419;51.276;6.472;2023-12-20T10:33:11;15.20;;;3.03;;
4810;SDS011;2419;51.276;6.472;2023-12-20T10:35:39;14.87;;;3.27;;
4810;SDS011;2419;51.276;6.472;2023-12-20T10:38:11;14.00;;;2.73;;
4810;SDS011;2419;51.276;6.472;2023-12-20T10:40:42;8.73;;;2.70;;
4810;SDS011;2419;51.276;6.472;2023-12-20T10:43:12;13.50;;;3.87;;
4810;SDS011;2419;51.276;6.472;2023-12-20T10:45:41;15.50;;;3.23;;
4810;SDS011;2419;51.276;6.472;2023-12-20T10:48:11;22.77;;;4.70;;
4810;SDS011;2419;51.276;6.472;2023-12-20T10:50:39;7.17;;;2.27;;
4810;SDS011;2419;51.276;6.472;2023-12-20T10:53:09;13.20;;;3.30;;
4810;SDS011;2419;51.276;6.472;2023-12-20T10:55:38;11.60;;;2.50;;
4810;SDS011;2419;51.276;6.472;2023-12-20T10:58:07;133.70;;;12.07;;
4810;SDS011;2419;51.276;6.472;2023-12-20T11:00:36;27.50;;;5.80;;
4810;SDS011;2419;51.276;6.472;2023-12-20T11:03:08;13.43;;;3.73;;
4810;SDS011;2419;51.276;6.472;2023-12-20T11:05:43;11.67;;;3.67;;
4810;SDS011;2419;51.276;6.472;2023-12-20T11:08:19;7.00;;;2.53;;
4810;SDS011;2419;51.276;6.472;2023-12-20T11:10:55;9.23;;;2.97;;
4810;SDS011;2419;51.276;6.472;2023-12-20T11:13:28;10.73;;;3.00;;
4810;SDS011;2419;51.276;6.472;2023-12-20T11:16:00;14.27;;;2.53;;
4810;SDS011;2419;51.276;6.472;2023-12-20T11:18:29;16.43;;;2.63;;
4810;SDS011;2419;51.276;6.472;2023-12-20T11:21:01;6.53;;;2.10;;
4810;SDS011;2419;51.276;6.472;2023-12-20T11:23:32;7.07;;;3.07;;
4810;SDS011;2419;51.276;6.472;2023-12-20T11:26:01;10.10;;;3.23;;
4810;SDS011;2419;51.276;6.472;2023-12-20T11:28:30;14.30;;;3.53;;
4810;SDS011;2419;51.276;6.472;2023-12-20T11:30:58;18.00;;;3.17;;
4810;SDS011;2419;51.276;6.472;2023-12-20T11:33:29;11.30;;;2.90;;
4810;SDS011;2419;51.276;6.472;2023-12-20T11:36:14;15.53;;;3.30;;
4810;SDS011;2419;51.276;6.472;2023-12-20T11:38:50;9.43;;;2.43;;
4810;SDS011;2419;51.276;6.472;2023-12-20T11:41:23;10.60;;;3.00;;
4810;SDS011;2419;51.276;6.472;2023-12-20T11:43:52;9.47;;;2.90;;
4810;SDS011;2419;51.276;6.472;2023-12-20T11:46:21;11.27;;;3.20;;
4810;SDS011;2419;51.276;6.472;2023-12-20T11:48:49;7.50;;;2.83;;
4810;SDS011;2419;51.276;6.472;2023-12-20T11:51:20;6.90;;;2.90;;
4810;SDS011;2419;51.276;6.472;2023-12-20T11:53:51;6.23;;;2.67;;
4810;SDS011;2419;51.276;6.472;2023-12-20T11:56:19;6.20;;;2.87;;
4810;SDS011;2419;51.276;6.472;2023-12-20T11:58:47;16.27;;;2.60;;
4810;SDS011;2419;51.276;6.472;2023-12-20T12:01:17;11.43;;;3.50;;
4810;SDS011;2419;51.276;6.472;2023-12-20T12:03:48;8.00;;;2.90;;
4810;SDS011;2419;51.276;6.472;2023-12-20T12:06:17;9.20;;;3.30;;
4810;SDS011;2419;51.276;6.472;2023-12-20T12:08:46;15.93;;;3.53;;
4810;SDS011;2419;51.276;6.472;2023-12-20T12:11:14;11.33;;;3.30;;
4810;SDS011;2419;51.276;6.472;2023-12-20T12:13:43;22.33;;;4.00;;
4810;SDS011;2419;51.276;6.472;2023-12-20T12:16:11;8.10;;;2.43;;
4810;SDS011;2419;51.276;6.472;2023-12-20T12:18:39;6.67;;;2.70;;
4810;SDS011;2419;51.276;6.472;2023-12-20T12:21:08;13.60;;;3.80;;
4810;SDS011;2419;51.276;6.472;2023-12-20T12:23:44;17.00;;;4.63;;
4810;SDS011;2419;51.276;6.472;2023-12-20T12:26:13;13.33;;;3.30;;
4810;SDS011;2419;51.276;6.472;2023-12-20T12:28:41;15.07;;;3.57;;
4810;SDS011;2419;51.276;6.472;2023-12-20T12:31:13;18.63;;;3.60;;
4810;SDS011;2419;51.276;6.472;2023-12-20T12:33:42;11.43;;;2.87;;
4810;SDS011;2419;51.276;6.472;2023-12-20T12:36:12;11.83;;;4.10;;
4810;SDS011;2419;51.276;6.472;2023-12-20T12:38:42;11.47;;;3.43;;
4810;SDS011;2419;51.276;6.472;2023-12-20T12:41:13;10.73;;;3.00;;
4810;SDS011;2419;51.276;6.472;2023-12-20T12:43:42;10.43;;;4.33;;
4810;SDS011;2419;51.276;6.472;2023-12-20T12:46:10;18.63;;;3.27;;
4810;SDS011;2419;51.276;6.472;2023-12-20T12:48:38;10.87;;;2.70;;
4810;SDS011;2419;51.276;6.472;2023-12-20T12:51:10;7.67;;;3.03;;
4810;SDS011;2419;51.276;6.472;2023-12-20T12:53:40;11.77;;;4.20;;
4810;SDS011;2419;51.276;6.472;2023-12-20T12:56:08;17.77;;;3.83;;
4810;SDS011;2419;51.276;6.472;2023-12-20T12:58:37;11.90;;;3.13;;
4810;SDS011;2419;51.276;6.472;2023-12-20T13:01:05;6.53;;;3.20;;
4810;SDS011;2419;51.276;6.472;2023-12-20T13:03:34;14.87;;;3.87;;
4810;SDS011;2419;51.276;6.472;2023-12-20T13:06:03;11.03;;;3.40;;
4810;SDS011;2419;51.276;6.472;2023-12-20T13:08:32;21.67;;;3.80;;
4810;SDS011;2419;51.276;6.472;2023-12-20T13:11:00;6.33;;;3.63;;
4810;SDS011;2419;51.276;6.472;2023-12-20T13:13:30;17.33;;;4.23;;
4810;SDS011;2419;51.276;6.472;2023-12-20T13:16:00;15.40;;;4.70;;
4810;SDS011;2419;51.276;6.472;2023-12-20T13:18:28;8.97;;;4.00;;
4810;SDS011;2419;51.276;6.472;2023-12-20T13:20:56;16.53;;;4.23;;
4810;SDS011;2419;51.276;6.472;2023-12-20T13:23:24;17.33;;;4.63;;
4810;SDS011;2419;51.276;6.472;2023-12-20T13:25:52;17.70;;;5.37;;
4810;SDS011;2419;51.276;6.472;2023-12-20T13:28:20;16.17;;;4.97;;
4810;SDS011;2419;51.276;6.472;2023-12-20T13:30:48;17.63;;;4.97;;
4810;SDS011;2419;51.276;6.472;2023-12-20T13:33:18;8.77;;;4.40;;
4810;SDS011;2419;51.276;6.472;2023-12-20T13:35:46;12.47;;;5.33;;
4810;SDS011;2419;51.276;6.472;2023-12-20T13:38:14;13.23;;;3.70;;
4810;SDS011;2419;51.276;6.472;2023-12-20T13:40:42;22.13;;;5.67;;
4810;SDS011;2419;51.276;6.472;2023-12-20T13:43:10;18.37;;;4.80;;
4810;SDS011;2419;51.276;6.472;2023-12-20T13:45:39;15.53;;;5.37;;
4810;SDS011;2419;51.276;6.472;2023-12-20T13:48:07;14.33;;;4.90;;
4810;SDS011;2419;51.276;6.472;2023-12-20T13:50:37;14.77;;;4.50;;
4810;SDS011;2419;51.276;6.472;2023-12-20T13:53:07;19.47;;;4.70;;
4810;SDS011;2419;51.276;6.472;2023-12-20T13:55:35;13.30;;;4.63;;
4810;SDS011;2419;51.276;6.472;2023-12-20T13:58:04;10.37;;;3.93;;
4810;SDS011;2419;51.276;6.472;2023-12-20T14:00:32;21.87;;;5.30;;
4810;SDS011;2419;51.276;6.472;2023-12-20T14:03:03;8.77;;;4.10;;
4810;SDS011;2419;51.276;6.472;2023-12-20T14:05:32;12.43;;;4.10;;
4810;SDS011;2419;51.276;6.472;2023-12-20T14:08:01;17.67;;;5.50;;
4810;SDS011;2419;51.276;6.472;2023-12-20T14:10:30;15.03;;;5.27;;
4810;SDS011;2419;51.276;6.472;2023-12-20T14:12:58;12.53;;;4.73;;
4810;SDS011;2419;51.276;6.472;2023-12-20T14:15:26;11.45;;;4.47;;
4810;SDS011;2419;51.276;6.472;2023-12-20T14:17:56;13.73;;;4.20;;
4810;SDS011;2419;51.276;6.472;2023-12-20T14:20:24;7.07;;;4.73;;
4810;SDS011;2419;51.276;6.472;2023-12-20T14:22:53;14.33;;;4.80;;
4810;SDS011;2419;51.276;6.472;2023-12-20T14:25:23;17.77;;;5.40;;
4810;SDS011;2419;51.276;6.472;2023-12-20T14:27:51;12.20;;;5.03;;
4810;SDS011;2419;51.276;6.472;2023-12-20T14:30:20;19.80;;;5.70;;
4810;SDS011;2419;51.276;6.472;2023-12-20T14:32:48;11.20;;;3.80;;
4810;SDS011;2419;51.276;6.472;2023-12-20T14:35:16;16.70;;;5.13;;
4810;SDS011;2419;51.276;6.472;2023-12-20T14:37:46;26.03;;;5.47;;
4810;SDS011;2419;51.276;6.472;2023-12-20T14:40:14;14.80;;;4.63;;
4810;SDS011;2419;51.276;6.472;2023-12-20T14:42:44;8.20;;;4.10;;
4810;SDS011;2419;51.276;6.472;2023-12-20T14:45:13;10.10;;;4.60;;
4810;SDS011;2419;51.276;6.472;2023-12-20T14:47:42;8.63;;;5.10;;
4810;SDS011;2419;51.276;6.472;2023-12-20T14:50:11;12.00;;;4.53;;
4810;SDS011;2419;51.276;6.472;2023-12-20T14:52:45;10.63;;;4.60;;
4810;SDS011;2419;51.276;6.472;2023-12-20T14:55:13;17.53;;;5.23;;
4810;SDS011;2419;51.276;6.472;2023-12-20T14:57:42;17.37;;;5.37;;
4810;SDS011;2419;51.276;6.472;2023-12-20T15:00:12;15.50;;;5.53;;
4810;SDS011;2419;51.276;6.472;2023-12-20T15:02:42;13.40;;;5.97;;
4810;SDS011;2419;51.276;6.472;2023-12-20T15:05:11;10.10;;;5.23;;
4810;SDS011;2419;51.276;6.472;2023-12-20T15:07:40;7.30;;;4.50;;
4810;SDS011;2419;51.276;6.472;2023-12-20T15:10:09;15.43;;;4.97;;
4810;SDS011;2419;51.276;6.472;2023-12-20T15:12:37;14.97;;;4.67;;
4810;SDS011;2419;51.276;6.472;2023-12-20T15:15:05;12.47;;;5.23;;